Pratt, Minnesota
Current Conditions -  °F | °C
As of 8:55 PM on Friday 21 Nov 2014 (Local Time) from KOWA Reporting Station
Clear Clear  
Wind Chill: -9°   Ceiling: Unl
Heat Index: -2°   Visibility: 10mi
Dew Point: -4°   Wind: 17mph
Humidity: 86%   Direction: 170°S
Pressure: 29.94"   Gusts: 22mph
Location:  44.0575°N, 93.2082°W
Report Text: KOWA 220255Z AUTO 17015G19KT 10SM CLR M02/M04 A2994 RMK AO2
Loading
Personal Weather Stations






























Interactive Weather Map New forecast layout! Learn more

10-Day Weather Forecast

Advertisements
Track Severe Weather on mobile